Time;durP1;ratioP1;P1;durP2;ratioP2;P2;SDS_P1;SDS_P2;PMS_P1;PMS_P2;Temp;Humidity;BMP_temperature;BMP_pressure;BME280_temperature;BME280_humidity;BME280_pressure;Samples;Min_cycle;Max_cycle;Signal;HPM_P1;HPM_P2
2023/12/21 00:01:44;;;;;;;12.50;6.73;;;;;;;-0.19;100.00;98985.66;5094270;28;20044;-65
2023/12/21 00:04:10;;;;;;;11.60;7.13;;;;;;;-0.11;100.00;98996.28;5094223;28;20139;-63
2023/12/21 00:06:35;;;;;;;18.77;7.07;;;;;;;-0.18;100.00;98984.72;5093264;28;20036;-64
2023/12/21 00:09:01;;;;;;;18.87;6.43;;;;;;;-0.11;100.00;98981.41;5094003;28;20036;-65
2023/12/21 00:11:27;;;;;;;11.10;6.23;;;;;;;-0.03;100.00;98988.53;5093925;28;20123;-64
2023/12/21 00:13:52;;;;;;;10.33;6.23;;;;;;;-0.08;100.00;98980.28;5093830;28;20036;-65
2023/12/21 00:16:19;;;;;;;11.03;7.83;;;;;;;0.01;100.00;98986.50;5092147;28;20048;-64
2023/12/21 00:18:45;;;;;;;17.03;7.90;;;;;;;0.03;100.00;98984.56;5093981;28;20130;-63
2023/12/21 00:21:10;;;;;;;12.93;6.70;;;;;;;0.06;100.00;98973.81;5093794;28;20458;-63
2023/12/21 00:23:36;;;;;;;12.33;6.33;;;;;;;0.08;100.00;98974.50;5093706;28;20367;-64
2023/12/21 00:26:01;;;;;;;16.40;7.10;;;;;;;0.13;100.00;98973.13;5093463;28;20506;-65
2023/12/21 00:28:27;;;;;;;13.23;6.83;;;;;;;0.19;100.00;98979.56;5093521;28;20504;-63
2023/12/21 00:30:53;;;;;;;12.30;6.60;;;;;;;0.02;100.00;98947.09;5093699;28;20119;-62
2023/12/21 00:33:18;;;;;;;12.50;7.00;;;;;;;0.18;100.00;98967.44;5093510;28;20039;-64
2023/12/21 00:35:44;;;;;;;14.13;7.17;;;;;;;0.08;100.00;98950.94;5093475;28;20036;-61
2023/12/21 00:38:09;;;;;;;12.93;7.23;;;;;;;0.05;100.00;98957.28;5093389;28;20105;-66
2023/12/21 00:40:35;;;;;;;19.47;7.20;;;;;;;0.05;100.00;98956.47;5074911;28;20062;-65
2023/12/21 00:43:01;;;;;;;16.03;7.63;;;;;;;-0.02;100.00;98940.47;5093223;28;20131;-62
2023/12/21 00:45:26;;;;;;;16.87;8.10;;;;;;;-0.04;100.00;98939.78;5093262;28;20188;-66
2023/12/21 00:47:52;;;;;;;20.83;7.63;;;;;;;-0.05;100.00;98932.91;5093844;28;20021;-68
2023/12/21 00:50:17;;;;;;;10.40;6.40;;;;;;;0.06;100.00;98945.84;5093556;28;20028;-65
2023/12/21 00:52:43;;;;;;;18.13;7.47;;;;;;;-0.15;100.00;98903.31;5093698;28;20032;-62
2023/12/21 00:55:09;;;;;;;13.40;6.37;;;;;;;-0.09;100.00;98898.34;5092941;28;20467;-63
2023/12/21 00:57:35;;;;;;;18.50;7.37;;;;;;;0.10;100.00;98920.22;5093676;28;20480;-63
2023/12/21 01:00:01;;;;;;;17.03;8.43;;;;;;;0.10;100.00;98923.66;5093204;28;20296;-63
2023/12/21 01:02:26;;;;;;;19.30;8.43;;;;;;;0.19;100.00;98924.59;5093163;28;20036;-67
2023/12/21 01:04:52;;;;;;;12.23;6.83;;;;;;;0.26;100.00;98923.88;5092918;28;20046;-63
2023/12/21 01:07:17;;;;;;;15.33;6.87;;;;;;;0.15;100.00;98895.28;5091843;28;20122;-64
2023/12/21 01:09:43;;;;;;;19.70;7.67;;;;;;;0.26;100.00;98910.78;5092531;28;20483;-66
2023/12/21 01:12:09;;;;;;;12.70;7.70;;;;;;;0.19;100.00;98896.63;5092419;28;20040;-64
2023/12/21 01:14:34;;;;;;;18.40;7.30;;;;;;;0.17;100.00;98893.34;5091572;28;20039;-61
2023/12/21 01:17:06;;;;;;;10.27;6.50;;;;;;;0.25;100.00;98890.00;5092429;28;20055;-64
2023/12/21 01:19:32;;;;;;;15.57;7.73;;;;;;;0.30;100.00;98899.09;5092756;28;20048;-63
2023/12/21 01:21:57;;;;;;;16.97;7.63;;;;;;;0.23;100.00;98879.66;5092436;28;20269;-63
2023/12/21 01:24:23;;;;;;;20.13;9.07;;;;;;;0.41;100.00;98898.09;5092439;28;20047;-63
2023/12/21 01:26:48;;;;;;;20.27;9.10;;;;;;;0.33;100.00;98897.97;5092323;28;20027;-63
2023/12/21 01:29:14;;;;;;;18.53;10.37;;;;;;;0.40;100.00;98895.59;5092459;28;20101;-63
2023/12/21 01:31:39;;;;;;;20.17;11.13;;;;;;;0.40;100.00;98893.00;5092277;28;20044;-63
2023/12/21 01:34:05;;;;;;;20.53;10.23;;;;;;;0.27;100.00;98865.31;5092269;28;20065;-65
2023/12/21 01:36:31;;;;;;;19.87;11.50;;;;;;;0.42;100.00;98885.81;5092184;28;20554;-64
2023/12/21 01:38:57;;;;;;;20.27;9.73;;;;;;;0.53;100.00;98888.25;5092249;28;20044;-64
2023/12/21 01:41:24;;;;;;;22.83;10.80;;;;;;;0.36;100.00;98854.97;5092273;28;20313;-62
2023/12/21 01:43:50;;;;;;;16.10;10.00;;;;;;;0.57;100.00;98894.84;5092028;28;20154;-63
2023/12/21 01:46:16;;;;;;;23.07;10.63;;;;;;;0.48;100.00;98866.91;5092136;28;20270;-62
2023/12/21 01:48:42;;;;;;;19.20;10.67;;;;;;;0.35;100.00;98848.09;5092193;28;20794;-65
2023/12/21 01:51:11;;;;;;;16.13;9.27;;;;;;;0.56;100.00;98894.00;5092445;28;20369;-66
2023/12/21 01:53:39;;;;;;;17.65;9.77;;;;;;;0.37;100.00;98872.34;5092193;28;20331;-63
2023/12/21 01:56:05;;;;;;;22.07;9.30;;;;;;;0.39;100.00;98876.47;5092128;28;20416;-63
2023/12/21 01:58:31;;;;;;;13.07;8.10;;;;;;;0.51;100.00;98892.78;5091949;28;20335;-63
2023/12/21 02:00:58;;;;;;;15.40;8.90;;;;;;;0.48;100.00;98865.09;5092195;28;20302;-63
2023/12/21 02:03:27;;;;;;;16.83;7.50;;;;;;;0.59;100.00;98869.34;5091706;28;20486;-66
2023/12/21 02:05:53;;;;;;;16.33;7.90;;;;;;;0.70;100.00;98884.03;5091872;28;20765;-62
2023/12/21 02:08:20;;;;;;;22.80;9.27;;;;;;;0.53;100.00;98857.63;5090408;28;20268;-65
2023/12/21 02:10:46;;;;;;;12.13;8.83;;;;;;;0.67;100.00;98874.69;5091990;28;20066;-64
2023/12/21 02:13:12;;;;;;;18.63;8.53;;;;;;;0.69;100.00;98872.72;5092130;28;20618;-63
2023/12/21 02:15:39;;;;;;;18.00;7.80;;;;;;;0.72;100.00;98867.19;5091800;28;20281;-63
2023/12/21 02:18:06;;;;;;;18.37;8.27;;;;;;;0.72;100.00;98861.97;5091434;28;20645;-64
2023/12/21 02:20:52;;;;;;;19.43;8.63;;;;;;;0.67;100.00;98843.25;5090355;28;20088;-63
2023/12/21 02:23:19;;;;;;;17.60;8.80;;;;;;;0.74;100.00;98856.56;5091897;28;20258;-65
2023/12/21 02:25:45;;;;;;;17.33;9.33;;;;;;;0.77;100.00;98859.72;5091280;28;20046;-62
2023/12/21 02:28:11;;;;;;;15.50;9.17;;;;;;;0.75;100.00;98855.59;5091131;28;20266;-65
2023/12/21 02:30:36;;;;;;;21.37;8.73;;;;;;;0.04;100.00;98738.41;5090603;28;20044;-62
2023/12/21 02:33:02;;;;;;;15.70;8.03;;;;;;;0.78;100.00;98856.13;5091443;28;20620;-62
2023/12/21 02:35:28;;;;;;;21.33;9.93;;;;;;;0.77;100.00;98856.28;5091256;28;20054;-63
2023/12/21 02:37:53;;;;;;;17.40;8.30;;;;;;;0.71;100.00;98846.38;5091591;28;20035;-64
2023/12/21 02:40:19;;;;;;;22.53;9.07;;;;;;;0.61;100.00;98841.22;5102563;28;20491;-61
2023/12/21 02:42:45;;;;;;;23.03;10.47;;;;;;;0.63;100.00;98847.13;5111872;28;20041;-65
2023/12/21 02:45:10;;;;;;;20.93;9.50;;;;;;;0.54;100.00;98833.09;5110297;28;20039;-64
2023/12/21 02:47:36;;;;;;;17.17;8.90;;;;;;;0.50;100.00;98833.53;5111728;28;20038;-65
2023/12/21 02:50:02;;;;;;;13.97;7.50;;;;;;;0.43;100.00;98829.84;5111832;28;20458;-65
2023/12/21 02:52:29;;;;;;;14.13;8.43;;;;;;;0.16;100.00;98786.97;5111655;28;20042;-64
2023/12/21 02:54:55;;;;;;;16.90;10.43;;;;;;;0.04;100.00;98785.53;5111896;28;20348;-66
2023/12/21 02:57:20;;;;;;;18.97;10.57;;;;;;;0.32;100.00;98837.91;5112191;28;20039;-65
2023/12/21 02:59:46;;;;;;;22.53;10.53;;;;;;;-0.07;100.00;98777.84;5111662;28;20121;-61
2023/12/21 03:02:11;;;;;;;16.30;10.20;;;;;;;0.27;100.00;98833.06;5112326;28;20439;-64
2023/12/21 03:04:37;;;;;;;17.27;8.77;;;;;;;0.24;100.00;98826.34;5112045;28;20047;-65
2023/12/21 03:07:02;;;;;;;13.87;8.23;;;;;;;0.23;100.00;98829.94;5111534;28;20116;-65
2023/12/21 03:09:28;;;;;;;13.77;8.57;;;;;;;-0.33;100.00;98739.22;5112008;28;20066;-65
2023/12/21 03:11:54;;;;;;;14.23;8.00;;;;;;;-0.25;100.00;98750.78;5110718;28;20487;-65
2023/12/21 03:14:22;;;;;;;14.57;7.27;;;;;;;-0.04;100.00;98786.22;5111613;28;20127;-63
2023/12/21 03:16:49;;;;;;;16.25;7.75;;;;;;;0.26;100.00;98834.88;5111594;28;20052;-63
2023/12/21 03:19:15;;;;;;;11.83;7.83;;;;;;;0.37;100.00;98820.78;5111559;28;20092;-63
2023/12/21 03:21:41;;;;;;;11.07;7.80;;;;;;;0.37;100.00;98814.72;5110025;28;20301;-63
2023/12/21 03:24:06;;;;;;;14.03;7.10;;;;;;;0.45;100.00;98822.66;5110248;28;20031;-64
2023/12/21 03:26:32;;;;;;;12.13;6.57;;;;;;;0.20;100.00;98798.81;5111545;28;20035;-64
2023/12/21 03:28:57;;;;;;;8.83;6.63;;;;;;;0.28;100.00;98819.84;5111498;28;20039;-63
2023/12/21 03:31:23;;;;;;;11.30;6.83;;;;;;;-0.09;100.00;98764.06;5115106;28;20050;-64
2023/12/21 03:33:49;;;;;;;11.30;7.03;;;;;;;0.19;100.00;98799.78;5115046;28;20044;-66
2023/12/21 03:36:15;;;;;;;10.73;6.43;;;;;;;0.30;100.00;98801.41;5115129;28;20028;-63
2023/12/21 03:38:40;;;;;;;13.93;7.23;;;;;;;0.15;100.00;98769.63;5115234;28;20498;-64
2023/12/21 03:41:06;;;;;;;13.97;6.43;;;;;;;0.43;100.00;98801.88;5114738;27;20062;-64
2023/12/21 03:43:31;;;;;;;12.03;6.40;;;;;;;0.55;100.00;98808.53;5113792;28;20080;-65
2023/12/21 03:45:57;;;;;;;14.80;7.03;;;;;;;0.49;100.00;98787.34;5113325;28;20035;-64
2023/12/21 03:48:22;;;;;;;15.73;8.90;;;;;;;0.59;100.00;98802.06;5114669;28;20039;-63
2023/12/21 03:50:48;;;;;;;13.13;6.60;;;;;;;0.44;100.00;98779.13;5114950;28;20364;-64
2023/12/21 03:53:14;;;;;;;12.50;6.40;;;;;;;0.33;100.00;98761.00;5114943;28;20027;-66
2023/12/21 03:55:40;;;;;;;9.50;6.03;;;;;;;0.64;100.00;98801.63;5114572;28;20046;-66
2023/12/21 03:58:05;;;;;;;12.10;6.83;;;;;;;0.52;100.00;98784.44;5114686;27;20307;-61
2023/12/21 04:00:31;;;;;;;8.47;5.73;;;;;;;0.36;100.00;98739.75;5113139;28;20031;-64
2023/12/21 04:02:56;;;;;;;10.30;6.03;;;;;;;0.67;100.00;98777.75;5114565;28;20093;-61
2023/12/21 04:05:22;;;;;;;14.00;6.30;;;;;;;0.68;100.00;98775.94;5114432;28;20035;-64
2023/12/21 04:07:48;;;;;;;7.40;5.60;;;;;;;0.73;100.00;98787.63;5112873;28;20035;-62
2023/12/21 04:10:13;;;;;;;10.80;7.37;;;;;;;0.71;100.00;98781.72;5114266;28;20040;-65
2023/12/21 04:12:39;;;;;;;12.70;6.27;;;;;;;-0.05;100.00;98663.38;5114533;28;20039;-62
2023/12/21 04:15:05;;;;;;;11.80;6.10;;;;;;;0.50;100.00;98757.56;5114670;28;20261;-65
2023/12/21 04:17:31;;;;;;;12.37;5.73;;;;;;;0.59;100.00;98777.66;5114116;28;20079;-64
2023/12/21 04:20:00;;;;;;;11.20;5.93;;;;;;;0.57;100.00;98774.34;5114155;27;20403;-64
2023/12/21 04:22:28;;;;;;;13.32;6.07;;;;;;;0.52;100.00;98776.59;5114144;28;20031;-62
2023/12/21 04:24:53;;;;;;;12.45;4.80;;;;;;;0.37;100.00;98757.94;5113969;28;20050;-61
2023/12/21 04:27:22;;;;;;;14.63;6.17;;;;;;;0.47;100.00;98776.22;5112731;28;20513;-62
2023/12/21 04:29:51;;;;;;;9.75;5.13;;;;;;;0.47;100.00;98757.88;5112647;28;20031;-62
2023/12/21 04:32:16;;;;;;;7.20;4.28;;;;;;;0.41;100.00;98740.97;5114439;28;20454;-65
2023/12/21 04:34:42;;;;;;;12.73;5.20;;;;;;;0.64;100.00;98762.31;5112941;28;20043;-62
2023/12/21 04:37:07;;;;;;;8.27;4.73;;;;;;;0.57;100.00;98759.44;5113887;28;20593;-63
2023/12/21 04:39:33;;;;;;;14.83;5.70;;;;;;;0.37;100.00;98741.41;5112626;28;20406;-64
2023/12/21 04:42:02;;;;;;;13.77;5.60;;;;;;;0.44;100.00;98753.75;5113822;28;20116;-66
2023/12/21 04:44:28;;;;;;;9.23;5.37;;;;;;;0.38;100.00;98732.59;5114101;28;20058;-67
2023/12/21 04:46:53;;;;;;;9.83;5.87;;;;;;;0.60;100.00;98761.81;5113377;28;20269;-63
2023/12/21 04:49:22;;;;;;;7.83;5.63;;;;;;;0.50;100.00;98726.97;5112785;28;20126;-66
2023/12/21 04:51:48;;;;;;;10.10;6.18;;;;;;;0.55;100.00;98723.91;5114213;28;20075;-67
2023/12/21 04:54:14;;;;;;;16.77;5.30;;;;;;;0.78;100.00;98750.50;5114275;28;20491;-62
2023/12/21 04:56:40;;;;;;;8.80;4.87;;;;;;;0.78;100.00;98743.44;5113391;28;20030;-63
2023/12/21 04:59:06;;;;;;;9.83;4.77;;;;;;;0.72;100.00;98736.19;5113333;28;20122;-63
2023/12/21 05:01:32;;;;;;;9.33;5.83;;;;;;;0.58;100.00;98723.63;5113471;28;20292;-62
2023/12/21 05:03:59;;;;;;;13.77;6.23;;;;;;;0.41;100.00;98713.94;5113544;28;20265;-63
2023/12/21 05:06:25;;;;;;;10.17;5.97;;;;;;;0.47;100.00;98731.69;5111933;28;20050;-62
2023/12/21 05:08:51;;;;;;;10.90;6.13;;;;;;;0.41;100.00;98717.41;5113514;28;20784;-66
2023/12/21 05:11:17;;;;;;;12.37;6.17;;;;;;;0.44;100.00;98726.75;5113098;28;20032;-66
2023/12/21 05:13:43;;;;;;;12.30;6.37;;;;;;;0.21;100.00;98695.75;5113126;28;20708;-64
2023/12/21 05:16:09;;;;;;;9.67;6.43;;;;;;;0.27;100.00;98699.56;5112917;28;20290;-63
2023/12/21 05:18:36;;;;;;;17.07;6.17;;;;;;;0.38;100.00;98722.09;5113364;27;20043;-66
2023/12/21 05:21:02;;;;;;;12.53;6.73;;;;;;;0.19;100.00;98696.84;5112882;28;20334;-63
2023/12/21 05:23:28;;;;;;;12.03;7.23;;;;;;;0.18;100.00;98706.50;5113237;28;20292;-62
2023/12/21 05:25:53;;;;;;;10.40;6.80;;;;;;;0.22;100.00;98713.09;5112952;28;20063;-66
2023/12/21 05:28:19;;;;;;;12.40;8.33;;;;;;;0.24;100.00;98711.16;5111435;28;20031;-64
2023/12/21 05:30:46;;;;;;;13.53;8.43;;;;;;;0.17;100.00;98709.28;5112732;28;20541;-63
2023/12/21 05:33:11;;;;;;;11.20;7.40;;;;;;;0.33;100.00;98713.88;5112114;28;20032;-64
2023/12/21 05:35:37;;;;;;;14.53;7.33;;;;;;;0.47;100.00;98715.97;5112862;28;20407;-65
2023/12/21 05:38:03;;;;;;;15.70;8.87;;;;;;;0.41;100.00;98688.59;5112919;28;20035;-64
2023/12/21 05:40:28;;;;;;;16.73;14.37;;;;;;;0.62;100.00;98711.88;5112455;28;20080;-64
2023/12/21 05:42:54;;;;;;;30.17;22.50;;;;;;;0.53;100.00;98699.66;5111280;28;20031;-63
2023/12/21 05:45:19;;;;;;;22.97;19.80;;;;;;;0.38;100.00;98677.59;5112655;28;20036;-67
2023/12/21 05:47:45;;;;;;;15.07;8.67;;;;;;;0.43;100.00;98680.59;5112678;28;20493;-65
2023/12/21 05:50:10;;;;;;;9.33;6.50;;;;;;;0.48;100.00;98692.25;5112613;28;20077;-64
2023/12/21 05:52:36;;;;;;;12.53;6.57;;;;;;;0.44;100.00;98690.09;5110782;28;20051;-66
2023/12/21 05:55:02;;;;;;;15.10;7.10;;;;;;;0.43;100.00;98684.03;5112167;28;20044;-63
2023/12/21 05:57:29;;;;;;;26.40;10.40;;;;;;;0.23;100.00;98645.84;5111013;28;20258;-64
2023/12/21 05:59:55;;;;;;;16.43;8.63;;;;;;;-0.57;100.00;98502.78;5111109;28;20289;-66
2023/12/21 06:02:20;;;;;;;12.53;7.77;;;;;;;0.59;100.00;98696.47;5112930;28;20027;-62
2023/12/21 06:04:46;;;;;;;15.07;8.37;;;;;;;0.56;100.00;98678.41;5112428;28;20038;-61
2023/12/21 06:07:12;;;;;;;15.03;9.47;;;;;;;0.69;100.00;98688.53;5112470;28;20159;-65
2023/12/21 06:09:37;;;;;;;16.40;9.90;;;;;;;0.63;100.00;98697.81;5112275;28;20096;-64
2023/12/21 06:12:03;;;;;;;18.60;10.47;;;;;;;0.33;100.00;98677.22;5110735;28;20043;-64
2023/12/21 06:14:29;;;;;;;16.33;10.10;;;;;;;0.36;100.00;98693.44;5112460;28;20062;-63
2023/12/21 06:16:55;;;;;;;20.33;11.17;;;;;;;0.36;100.00;98698.69;5112193;28;20082;-64
2023/12/21 06:19:20;;;;;;;23.17;11.37;;;;;;;0.28;100.00;98685.50;5111950;28;20335;-62
2023/12/21 06:21:46;;;;;;;20.83;11.13;;;;;;;0.20;100.00;98667.09;5111742;28;20398;-62
2023/12/21 06:24:11;;;;;;;22.30;10.87;;;;;;;0.19;100.00;98661.03;5111875;28;20468;-61
2023/12/21 06:26:41;;;;;;;17.10;11.27;;;;;;;0.19;100.00;98671.50;5112490;28;20445;-64
2023/12/21 06:29:07;;;;;;;18.93;11.00;;;;;;;0.20;100.00;98678.38;5112599;28;20039;-64
2023/12/21 06:31:33;;;;;;;22.37;11.63;;;;;;;0.10;100.00;98667.16;5101993;28;20354;-65
2023/12/21 06:33:58;;;;;;;25.33;11.97;;;;;;;-0.22;100.00;98623.16;5102874;28;20545;-64
2023/12/21 06:36:24;;;;;;;19.80;11.57;;;;;;;0.10;100.00;98666.34;5099830;28;20078;-66
2023/12/21 06:38:50;;;;;;;26.10;14.03;;;;;;;0.22;100.00;98678.22;5104941;28;20075;-64
2023/12/21 06:41:16;;;;;;;24.43;12.23;;;;;;;0.29;100.00;98677.53;5100045;28;20036;-64
2023/12/21 06:43:41;;;;;;;23.17;12.57;;;;;;;0.25;100.00;98664.84;5099118;28;20265;-63
2023/12/21 06:46:14;;;;;;;26.00;11.37;;;;;;;0.44;100.00;98679.59;5101838;28;20069;-62
2023/12/21 06:48:41;;;;;;;18.93;11.47;;;;;;;0.49;100.00;98682.59;5097858;28;20077;-62
2023/12/21 06:51:07;;;;;;;16.13;10.30;;;;;;;0.12;100.00;98612.88;5103202;28;20391;-63
2023/12/21 06:53:33;;;;;;;20.67;12.27;;;;;;;0.39;100.00;98658.28;5098834;28;20270;-65
2023/12/21 06:55:58;;;;;;;18.23;11.03;;;;;;;0.27;100.00;98647.19;5098534;28;20296;-64
2023/12/21 06:58:25;;;;;;;23.20;10.40;;;;;;;0.35;100.00;98651.72;5105085;28;20031;-61
2023/12/21 07:00:51;;;;;;;24.40;13.27;;;;;;;-0.09;100.00;98594.81;5102012;28;20483;-63
2023/12/21 07:03:17;;;;;;;17.47;10.37;;;;;;;0.33;100.00;98664.94;5104831;28;20350;-66
2023/12/21 07:05:42;;;;;;;18.43;11.80;;;;;;;0.14;100.00;98647.56;5105085;28;20065;-64
2023/12/21 07:08:08;;;;;;;17.60;10.63;;;;;;;-0.13;100.00;98595.28;5105947;27;20173;-63
2023/12/21 07:10:34;;;;;;;22.70;13.03;;;;;;;0.20;100.00;98657.44;5101772;28;20131;-63
2023/12/21 07:12:59;;;;;;;16.70;10.60;;;;;;;0.22;100.00;98660.72;5106744;28;20376;-64
2023/12/21 07:15:25;;;;;;;18.57;10.77;;;;;;;0.07;100.00;98645.69;5106270;28;20074;-62
2023/12/21 07:17:51;;;;;;;18.90;9.70;;;;;;;0.08;100.00;98637.69;5107414;28;20521;-64
2023/12/21 07:20:20;;;;;;;18.60;9.10;;;;;;;0.14;100.00;98647.56;5096210;28;20047;-62
2023/12/21 07:22:45;;;;;;;;;;;;;;;0.21;100.00;98653.03;5096754;28;20266;-64
2023/12/21 07:25:11;;;;;;;14.67;8.57;;;;;;;0.04;100.00;98641.59;5100160;28;20271;-64
2023/12/21 07:27:36;;;;;;;16.13;9.37;;;;;;;0.07;100.00;98638.66;5103750;28;20494;-63
2023/12/21 07:30:04;;;;;;;15.97;10.03;;;;;;;-0.03;100.00;98619.56;5105157;28;20481;-63
2023/12/21 07:32:30;;;;;;;15.85;10.00;;;;;;;-0.56;100.00;98520.94;5100096;28;20428;-64
2023/12/21 07:34:56;;;;;;;14.80;10.73;;;;;;;0.23;100.00;98636.19;5108559;28;20043;-64
2023/12/21 07:37:22;;;;;;;14.17;9.93;;;;;;;0.36;100.00;98643.72;5103905;28;20047;-63
2023/12/21 07:39:47;;;;;;;15.50;9.63;;;;;;;0.27;100.00;98627.06;5107284;28;20114;-63
2023/12/21 07:42:13;;;;;;;14.93;10.03;;;;;;;0.06;100.00;98582.06;5105685;28;20817;-63
2023/12/21 07:44:39;;;;;;;14.90;9.93;;;;;;;0.38;100.00;98633.06;5105147;28;20042;-64
2023/12/21 07:47:04;;;;;;;14.17;9.10;;;;;;;0.43;100.00;98641.31;5107141;28;20034;-64
2023/12/21 07:49:30;;;;;;;15.80;8.70;;;;;;;0.44;100.00;98632.47;5103403;28;20027;-64
2023/12/21 07:51:55;;;;;;;16.43;10.10;;;;;;;0.34;100.00;98632.56;5108118;28;20036;-64
2023/12/21 07:54:21;;;;;;;16.73;10.57;;;;;;;0.26;100.00;98619.38;5105649;28;20067;-65
2023/12/21 07:56:47;;;;;;;17.67;9.73;;;;;;;0.27;100.00;98621.84;5109256;28;20028;-66
2023/12/21 07:59:13;;;;;;;14.97;8.30;;;;;;;0.36;100.00;98620.13;5114941;28;20395;-67
2023/12/21 08:01:39;;;;;;;14.60;9.63;;;;;;;0.50;100.00;98642.34;5114119;28;20047;-70
2023/12/21 08:04:07;;;;;;;14.77;9.17;;;;;;;0.54;100.00;98638.44;5101766;28;20672;-69
2023/12/21 08:06:33;;;;;;;12.43;9.20;;;;;;;0.61;100.00;98639.50;5111892;28;20496;-70
2023/12/21 08:08:58;;;;;;;12.47;8.13;;;;;;;0.49;100.00;98614.50;5114774;28;20047;-66
2023/12/21 08:11:24;;;;;;;14.63;9.53;;;;;;;0.62;100.00;98635.91;5114360;28;20031;-69
2023/12/21 08:13:51;;;;;;;16.73;9.00;;;;;;;0.65;100.00;98635.59;5113435;28;20028;-68
2023/12/21 08:16:17;;;;;;;13.93;8.93;;;;;;;0.61;100.00;98626.41;5113711;28;20058;-64
2023/12/21 08:18:44;;;;;;;16.87;10.20;;;;;;;0.43;100.00;98594.16;5114235;28;20772;-66
2023/12/21 08:21:10;;;;;;;21.47;11.90;;;;;;;0.49;100.00;98607.47;5114209;28;20320;-65
2023/12/21 08:23:36;;;;;;;17.20;9.27;;;;;;;0.52;100.00;98603.72;5114338;28;20319;-67
2023/12/21 08:26:03;;;;;;;18.20;10.50;;;;;;;0.58;100.00;98624.09;5114393;28;20274;-65
2023/12/21 08:28:29;;;;;;;15.40;10.03;;;;;;;0.47;100.00;98605.97;5114224;28;20497;-64
2023/12/21 08:30:54;;;;;;;16.00;9.23;;;;;;;0.49;100.00;98602.22;5113999;28;20305;-68
2023/12/21 08:33:20;;;;;;;14.77;9.33;;;;;;;0.55;100.00;98606.84;5113546;28;20028;-67
2023/12/21 08:35:46;;;;;;;13.03;9.07;;;;;;;0.32;100.00;98563.00;5113625;28;20038;-64
2023/12/21 08:38:12;;;;;;;17.97;9.37;;;;;;;0.62;100.00;98609.72;5114382;28;20040;-68
2023/12/21 08:40:37;;;;;;;15.83;8.53;;;;;;;0.68;100.00;98601.25;5113630;28;20297;-65
2023/12/21 08:43:03;;;;;;;13.23;8.70;;;;;;;0.70;100.00;98598.47;5113639;28;20050;-68
2023/12/21 08:45:29;;;;;;;18.03;8.80;;;;;;;0.65;100.00;98601.56;5113653;28;20063;-64
2023/12/21 08:48:00;;;;;;;28.23;10.67;;;;;;;0.50;100.00;98569.84;5114012;28;20046;-68
2023/12/21 08:50:25;;;;;;;14.10;8.43;;;;;;;0.61;100.00;98602.84;5103783;28;20078;-64
2023/12/21 08:52:51;;;;;;;14.40;9.00;;;;;;;-0.28;100.00;98471.22;5098722;28;20262;-67
2023/12/21 08:55:16;;;;;;;12.83;8.90;;;;;;;0.54;100.00;98594.75;5098180;28;20043;-62
2023/12/21 08:57:42;;;;;;;17.97;10.13;;;;;;;0.63;100.00;98602.69;5092934;28;20063;-65
2023/12/21 09:00:13;;;;;;;15.50;9.53;;;;;;;0.50;100.00;98575.06;5092690;28;20385;-68
2023/12/21 09:02:39;;;;;;;13.80;8.50;;;;;;;0.59;100.00;98589.91;5099436;28;20028;-66
2023/12/21 09:05:06;;;;;;;15.63;9.80;;;;;;;0.60;100.00;98606.44;5103430;28;20266;-66
2023/12/21 09:07:33;;;;;;;22.17;9.73;;;;;;;0.46;100.00;98583.38;5098905;28;20725;-68
2023/12/21 09:10:00;;;;;;;23.73;11.53;;;;;;;0.57;100.00;98591.00;5101140;28;20277;-69
2023/12/21 09:12:28;;;;;;;24.97;11.87;;;;;;;0.63;100.00;98585.16;5100677;28;20347;-66
2023/12/21 09:14:54;;;;;;;21.40;10.75;;;;;;;0.81;100.00;98582.50;5109130;28;20297;-68
2023/12/21 09:17:21;;;;;;;18.13;10.70;;;;;;;0.80;100.00;98583.47;5104882;28;20060;-69
2023/12/21 09:19:46;;;;;;;30.63;12.43;;;;;;;0.83;100.00;98562.19;5101886;28;20096;-69
2023/12/21 09:22:19;;;;;;;22.93;10.97;;;;;;;0.80;100.00;98560.72;5100154;28;20294;-68
2023/12/21 09:24:44;;;;;;;24.80;12.63;;;;;;;0.82;100.00;98547.44;5101285;28;20280;-66
2023/12/21 09:27:10;;;;;;;23.00;12.53;;;;;;;0.81;100.00;98533.53;5111869;28;20356;-67
2023/12/21 09:29:36;;;;;;;20.33;10.53;;;;;;;1.00;100.00;98555.25;5112729;28;20357;-64
2023/12/21 09:32:01;;;;;;;20.80;11.07;;;;;;;0.85;100.00;98537.47;5113305;28;20061;-65
2023/12/21 09:34:27;;;;;;;23.03;11.87;;;;;;;0.88;100.00;98533.75;5113314;28;20497;-65
2023/12/21 09:36:53;;;;;;;25.03;13.07;;;;;;;0.82;100.00;98522.06;5113049;28;20027;-67
2023/12/21 09:39:19;;;;;;;33.70;14.57;;;;;;;0.77;100.00;98529.56;5112861;28;20112;-66
2023/12/21 09:41:45;;;;;;;19.73;12.40;;;;;;;0.70;100.00;98525.94;5112472;28;20035;-65
2023/12/21 09:44:16;;;;;;;27.40;12.37;;;;;;;0.81;100.00;98530.91;5112181;28;20262;-66
2023/12/21 09:46:46;;;;;;;22.10;12.57;;;;;;;0.82;100.00;98531.72;5101140;28;20369;-66
2023/12/21 09:49:16;;;;;;;20.07;12.30;;;;;;;0.53;100.00;98477.03;5103626;28;20720;-65
2023/12/21 09:51:46;;;;;;;21.50;11.87;;;;;;;0.66;100.00;98516.75;5102125;28;20273;-67
2023/12/21 09:54:14;;;;;;;22.83;12.47;;;;;;;0.66;100.00;98536.88;5112711;28;20269;-67
2023/12/21 09:56:41;;;;;;;17.93;11.37;;;;;;;0.59;100.00;98526.22;5112126;28;20266;-65
2023/12/21 09:59:07;;;;;;;26.00;12.73;;;;;;;0.65;100.00;98537.88;5102759;28;20274;-67
2023/12/21 10:01:33;;;;;;;22.03;12.00;;;;;;;0.69;100.00;98516.44;5101351;28;20298;-66
2023/12/21 10:03:59;;;;;;;27.83;15.07;;;;;;;0.60;100.00;98497.25;5101380;28;20265;-65
2023/12/21 10:06:26;;;;;;;30.63;15.40;;;;;;;0.82;100.00;98522.06;5098176;28;20028;-65
2023/12/21 10:08:52;;;;;;;23.33;13.67;;;;;;;0.77;100.00;98503.38;5100447;28;20036;-66
2023/12/21 10:11:19;;;;;;;24.53;13.67;;;;;;;0.70;100.00;98486.66;5101079;28;20311;-66
2023/12/21 10:13:48;;;;;;;23.00;14.53;;;;;;;0.69;100.00;98485.00;5100904;28;20455;-64
2023/12/21 10:16:16;;;;;;;25.07;13.77;;;;;;;0.87;100.00;98514.59;5101142;28;20866;-65
2023/12/21 10:18:42;;;;;;;17.85;11.95;;;;;;;0.78;100.00;98491.91;5104331;28;20377;-63
2023/12/21 10:21:10;;;;;;;23.90;12.03;;;;;;;0.82;100.00;98492.44;5101572;28;20039;-65
2023/12/21 10:23:39;;;;;;;20.23;12.53;;;;;;;0.82;100.00;98480.16;5108216;28;20274;-65
2023/12/21 10:26:05;;;;;;;20.33;12.87;;;;;;;0.74;100.00;98480.13;5111854;28;20352;-66
2023/12/21 10:28:31;;;;;;;21.87;12.67;;;;;;;0.75;100.00;98473.91;5114061;28;20659;-65
2023/12/21 10:30:58;;;;;;;21.40;13.43;;;;;;;0.83;100.00;98488.81;5113940;28;20262;-66
2023/12/21 10:33:27;;;;;;;24.60;12.97;;;;;;;0.56;100.00;98432.19;5114373;28;20043;-65
2023/12/21 10:35:54;;;;;;;18.80;11.37;;;;;;;0.74;100.00;98458.34;5115754;28;20369;-63
2023/12/21 10:38:22;;;;;;;19.90;11.07;;;;;;;0.93;100.00;98487.75;5118439;28;20697;-62
2023/12/21 10:40:49;;;;;;;19.43;11.50;;;;;;;0.79;100.00;98453.44;5121634;28;20293;-66
2023/12/21 10:43:16;;;;;;;19.50;12.57;;;;;;;0.86;100.00;98460.50;5117896;28;20341;-65
2023/12/21 10:45:46;;;;;;;22.03;12.20;;;;;;;0.95;100.00;98463.19;5117100;28;20752;-64
2023/12/21 10:48:13;;;;;;;17.13;11.50;;;;;;;0.89;100.00;98460.22;5116528;28;20273;-69
2023/12/21 10:50:39;;;;;;;28.93;12.47;;;;;;;0.57;100.00;98413.72;5115144;28;20273;-67
2023/12/21 10:53:05;;;;;;;20.57;14.07;;;;;;;0.73;100.00;98454.91;5116134;28;20659;-65
2023/12/21 10:55:32;;;;;;;21.13;13.27;;;;;;;0.68;100.00;98467.66;5116898;28;20265;-64
2023/12/21 10:58:02;;;;;;;24.03;12.03;;;;;;;0.52;100.00;98436.94;5114903;28;20330;-63
2023/12/21 11:00:28;;;;;;;20.67;13.03;;;;;;;0.32;100.00;98398.88;5116781;28;20384;-66
2023/12/21 11:02:57;;;;;;;21.40;12.80;;;;;;;0.38;100.00;98413.13;5116786;28;20327;-68
2023/12/21 11:05:23;;;;;;;17.20;10.65;;;;;;;0.53;100.00;98440.38;5116176;28;20096;-64
2023/12/21 11:07:54;;;;;;;18.63;12.67;;;;;;;0.72;100.00;98448.00;5115691;28;20036;-65
2023/12/21 11:10:22;;;;;;;18.23;11.30;;;;;;;0.71;100.00;98456.84;5116154;28;20265;-65
2023/12/21 11:12:50;;;;;;;17.27;11.87;;;;;;;0.50;100.00;98417.94;5115843;28;20269;-64
2023/12/21 11:15:20;;;;;;;19.47;11.87;;;;;;;0.52;100.00;98418.59;5097118;28;20278;-63
2023/12/21 11:17:52;;;;;;;17.27;11.53;;;;;;;0.24;100.00;98372.63;5115454;28;20277;-67